createdAt,value
2023-03-06T00:00:55.427Z,74.51
2023-03-06T00:03:23.641Z,75.99
2023-03-06T00:05:50.498Z,76.45
2023-03-06T00:08:17.496Z,76.26
2023-03-06T00:10:44.678Z,76.26
2023-03-06T00:13:14.203Z,76.18
2023-03-06T00:15:41.648Z,76.26
2023-03-06T00:18:08.804Z,76.25
2023-03-06T00:20:36.528Z,77.94
2023-03-06T00:23:03.796Z,77.23
2023-03-06T00:25:30.735Z,77.07
2023-03-06T00:27:57.983Z,78.06
2023-03-06T00:30:25.884Z,78.38
2023-03-06T00:32:53.549Z,77.65
2023-03-06T00:35:20.618Z,77.48
2023-03-06T00:37:47.909Z,77.72
2023-03-06T00:40:18.044Z,77.44
2023-03-06T00:42:44.932Z,76.44
2023-03-06T00:45:12.197Z,76.83
2023-03-06T00:47:39.222Z,76.29
2023-03-06T00:50:06.766Z,76.65
2023-03-06T00:52:33.849Z,76.82
2023-03-06T00:55:00.725Z,76.50
2023-03-06T00:57:27.687Z,76.66
2023-03-06T00:59:54.496Z,76.97
2023-03-06T01:02:22.018Z,76.15
2023-03-06T01:04:48.911Z,77.20
2023-03-06T01:07:15.824Z,76.60
2023-03-06T01:09:45.132Z,77.50
2023-03-06T01:12:12.282Z,77.54
2023-03-06T01:14:39.219Z,77.00
2023-03-06T01:17:06.192Z,77.93
2023-03-06T01:19:32.978Z,77.62
2023-03-06T01:21:59.944Z,78.32
2023-03-06T01:24:26.806Z,78.67
2023-03-06T01:26:53.646Z,77.95
2023-03-06T01:29:20.921Z,77.95
2023-03-06T01:31:47.970Z,77.71
2023-03-06T01:34:14.770Z,77.76
2023-03-06T01:36:41.752Z,77.76
2023-03-06T01:39:08.581Z,76.99
2023-03-06T01:41:35.575Z,78.05
2023-03-06T01:44:02.924Z,78.23
2023-03-06T01:46:32.657Z,78.74
2023-03-06T01:49:03.084Z,79.21
2023-03-06T01:51:36.058Z,79.47
2023-03-06T01:54:08.149Z,79.88
2023-03-06T01:56:35.809Z,79.69
2023-03-06T01:59:03.366Z,80.02
2023-03-06T02:01:51.531Z,80.53
2023-03-06T02:04:19.107Z,80.28
2023-03-06T02:06:46.449Z,80.09
2023-03-06T02:09:14.750Z,78.96
2023-03-06T02:11:44.281Z,79.44
2023-03-06T02:14:17.022Z,79.80
2023-03-06T02:16:44.810Z,81.58
2023-03-06T02:19:37.790Z,80.68
2023-03-06T02:22:04.791Z,80.42
2023-03-06T02:24:34.384Z,80.35
2023-03-06T02:27:04.359Z,80.19
2023-03-06T02:29:31.983Z,80.44
2023-03-06T02:31:58.770Z,80.50
2023-03-06T02:34:25.736Z,79.56
2023-03-06T02:36:58.345Z,80.05
2023-03-06T02:39:28.548Z,79.94
2023-03-06T02:41:55.720Z,81.09
2023-03-06T02:44:24.402Z,80.25
2023-03-06T02:46:51.368Z,80.58
2023-03-06T02:49:18.383Z,79.55
2023-03-06T02:51:45.156Z,79.50
2023-03-06T02:54:12.149Z,78.23
2023-03-06T02:56:39.130Z,79.09
2023-03-06T02:59:05.923Z,80.26
2023-03-06T03:01:32.887Z,80.75
2023-03-06T03:04:00.040Z,80.35
2023-03-06T03:06:27.513Z,80.73
2023-03-06T03:08:54.594Z,80.90
2023-03-06T03:11:21.539Z,80.68
2023-03-06T03:13:48.347Z,80.83
2023-03-06T03:16:16.049Z,80.85
2023-03-06T03:18:51.516Z,79.51
2023-03-06T03:21:18.689Z,79.69
2023-03-06T03:23:45.588Z,80.56
2023-03-06T03:26:19.793Z,80.11
2023-03-06T03:28:46.687Z,80.41
2023-03-06T03:31:13.899Z,79.93
2023-03-06T03:33:41.678Z,80.33
2023-03-06T03:36:09.545Z,80.47
2023-03-06T03:38:37.289Z,80.03
2023-03-06T03:41:05.061Z,79.13
2023-03-06T03:43:32.264Z,79.12
2023-03-06T03:45:59.112Z,78.52
2023-03-06T03:48:26.070Z,79.16
2023-03-06T03:50:52.986Z,80.18
2023-03-06T03:53:19.847Z,80.45
2023-03-06T03:55:48.647Z,80.00
2023-03-06T03:58:15.897Z,80.23
2023-03-06T04:00:42.842Z,79.45
2023-03-06T04:03:09.669Z,79.89
2023-03-06T04:05:36.977Z,80.38
2023-03-06T04:08:04.565Z,80.28
2023-03-06T04:10:31.902Z,80.42
2023-03-06T04:12:58.970Z,80.01
2023-03-06T04:15:25.997Z,80.18
2023-03-06T04:17:52.977Z,80.96
2023-03-06T04:20:19.840Z,81.89
2023-03-06T04:22:46.693Z,81.68
2023-03-06T04:25:13.600Z,81.85
2023-03-06T04:27:40.637Z,80.41
2023-03-06T04:30:08.760Z,80.79
2023-03-06T04:32:35.667Z,81.45
2023-03-06T04:35:02.812Z,81.20
2023-03-06T04:37:29.817Z,81.05
2023-03-06T04:39:57.282Z,80.35
2023-03-06T04:42:24.752Z,79.93
2023-03-06T04:44:51.561Z,80.15
2023-03-06T04:47:19.341Z,81.03
2023-03-06T04:49:46.431Z,82.07
2023-03-06T04:52:13.289Z,81.23
2023-03-06T04:54:40.162Z,81.11
2023-03-06T04:57:07.028Z,80.48
2023-03-06T04:59:33.812Z,81.51
2023-03-06T05:02:00.739Z,81.09
2023-03-06T05:04:27.690Z,80.80
2023-03-06T05:06:54.475Z,80.89
2023-03-06T05:09:21.277Z,81.70
2023-03-06T05:11:48.148Z,81.74
2023-03-06T05:14:15.067Z,81.69
2023-03-06T05:16:41.920Z,80.86
2023-03-06T05:19:08.878Z,81.69
2023-03-06T05:21:35.785Z,81.29
2023-03-06T05:24:02.606Z,79.96
2023-03-06T05:26:29.457Z,79.66
2023-03-06T05:28:56.430Z,77.37
2023-03-06T05:31:23.804Z,77.37
2023-03-06T05:33:50.944Z,76.76
2023-03-06T05:36:18.095Z,75.64
2023-03-06T05:38:44.874Z,74.43
2023-03-06T05:41:14.198Z,73.25
2023-03-06T05:43:41.494Z,70.69
2023-03-06T05:46:09.374Z,71.39
2023-03-06T05:48:37.674Z,68.31
2023-03-06T05:51:05.640Z,67.81
2023-03-06T05:53:33.160Z,68.10
2023-03-06T05:56:06.755Z,66.10
2023-03-06T05:58:34.054Z,64.75
2023-03-06T06:01:01.082Z,63.97
2023-03-06T06:03:28.205Z,62.16
2023-03-06T06:05:55.045Z,61.20
2023-03-06T06:08:22.052Z,58.21
2023-03-06T06:10:51.001Z,58.90
2023-03-06T06:13:19.589Z,56.62
2023-03-06T06:15:46.469Z,56.43
2023-03-06T06:18:13.437Z,55.27
2023-03-06T06:20:40.273Z,55.11
2023-03-06T06:23:07.230Z,52.08
2023-03-06T06:25:34.385Z,50.66
2023-03-06T06:28:01.221Z,49.14
2023-03-06T06:30:29.841Z,48.63
2023-03-06T06:32:56.883Z,47.46
2023-03-06T06:35:23.794Z,48.46
2023-03-06T06:37:51.150Z,45.89
2023-03-06T06:40:18.564Z,45.94
2023-03-06T06:42:46.725Z,44.87
2023-03-06T06:45:13.828Z,44.09
2023-03-06T06:47:41.773Z,43.78
2023-03-06T06:50:13.359Z,42.25
2023-03-06T06:52:41.066Z,43.21
2023-03-06T06:55:09.107Z,40.59
2023-03-06T06:57:36.358Z,41.00
2023-03-06T07:00:05.196Z,40.07
2023-03-06T07:02:33.119Z,40.92
2023-03-06T07:05:04.576Z,40.52
2023-03-06T07:07:35.635Z,38.57
2023-03-06T07:10:05.805Z,39.64
2023-03-06T07:12:33.057Z,39.65
2023-03-06T07:15:00.003Z,39.20
2023-03-06T07:17:26.798Z,38.47
2023-03-06T07:19:53.570Z,37.38
2023-03-06T07:22:20.391Z,38.28
2023-03-06T07:24:47.232Z,37.78
2023-03-06T07:27:13.996Z,38.33
2023-03-06T07:29:43.716Z,37.16
2023-03-06T07:32:11.674Z,38.31
2023-03-06T07:34:38.544Z,37.96
2023-03-06T07:37:05.607Z,37.31
2023-03-06T07:39:32.443Z,36.84
2023-03-06T07:41:59.288Z,36.96
2023-03-06T07:44:26.527Z,36.85
2023-03-06T07:46:53.563Z,36.59
2023-03-06T07:49:20.475Z,36.34
2023-03-06T07:51:47.425Z,36.15
2023-03-06T07:54:14.290Z,36.60
2023-03-06T07:56:41.255Z,36.27
2023-03-06T07:59:08.247Z,36.99
2023-03-06T08:01:36.568Z,35.65
2023-03-06T08:04:03.751Z,34.28
2023-03-06T08:06:30.683Z,34.57
2023-03-06T08:08:57.809Z,34.48
2023-03-06T08:11:28.340Z,34.79
2023-03-06T08:13:55.812Z,35.40
2023-03-06T08:16:24.934Z,34.70
2023-03-06T08:18:52.021Z,34.68
2023-03-06T08:21:21.801Z,34.26
2023-03-06T08:23:48.836Z,34.53
2023-03-06T08:26:19.487Z,34.63
2023-03-06T08:28:46.979Z,34.10
2023-03-06T08:31:24.188Z,34.55
2023-03-06T08:33:51.579Z,34.26
2023-03-06T08:36:18.630Z,35.26
2023-03-06T08:38:45.424Z,33.78
2023-03-06T08:41:12.420Z,34.68
2023-03-06T08:43:39.393Z,34.44
2023-03-06T08:46:06.355Z,33.46
2023-03-06T08:48:33.295Z,35.65
2023-03-06T08:51:00.081Z,37.26
2023-03-06T08:53:41.748Z,34.66
2023-03-06T08:56:30.503Z,34.88
2023-03-06T08:58:59.669Z,33.44
2023-03-06T09:01:29.049Z,34.99
2023-03-06T09:03:58.879Z,32.89
2023-03-06T09:06:27.551Z,37.70
2023-03-06T09:08:55.373Z,37.26
2023-03-06T09:11:24.723Z,33.79
2023-03-06T09:13:51.870Z,34.96
2023-03-06T09:16:18.860Z,34.28
2023-03-06T09:18:45.950Z,31.83
2023-03-06T09:21:13.171Z,33.64
2023-03-06T09:23:40.173Z,33.63
2023-03-06T09:26:08.700Z,35.08
2023-03-06T09:28:39.187Z,34.44
2023-03-06T09:31:16.245Z,34.46
2023-03-06T09:33:43.579Z,33.93
2023-03-06T09:36:15.990Z,32.85
2023-03-06T09:38:43.019Z,33.73
2023-03-06T09:41:35.691Z,34.32
2023-03-06T09:44:12.114Z,33.74
2023-03-06T09:47:08.118Z,33.44
2023-03-06T09:49:42.503Z,33.39
2023-03-06T09:52:43.689Z,31.81
2023-03-06T09:55:16.977Z,33.92
2023-03-06T09:57:52.987Z,32.92
2023-03-06T10:00:24.670Z,31.29
2023-03-06T10:03:01.084Z,31.15
2023-03-06T10:05:36.265Z,32.00
2023-03-06T10:08:36.375Z,32.91
2023-03-06T10:11:09.001Z,34.29
2023-03-06T10:13:38.486Z,31.36
2023-03-06T10:16:26.127Z,31.01
2023-03-06T10:18:54.936Z,31.83
2023-03-06T10:21:24.726Z,33.42
2023-03-06T10:24:01.719Z,31.42
2023-03-06T10:26:49.078Z,34.52
2023-03-06T10:29:30.038Z,30.43
2023-03-06T10:32:12.608Z,33.14
2023-03-06T10:34:41.156Z,33.41
2023-03-06T10:37:34.235Z,31.19
2023-03-06T10:40:16.149Z,33.46
2023-03-06T10:42:43.106Z,31.06
2023-03-06T10:45:16.097Z,31.07
2023-03-06T10:47:43.692Z,32.18
2023-03-06T10:50:24.311Z,32.27
2023-03-06T10:53:04.626Z,33.80
2023-03-06T10:55:32.937Z,33.56
2023-03-06T10:58:19.261Z,31.34
2023-03-06T11:00:46.591Z,32.82
2023-03-06T11:03:17.728Z,30.29
2023-03-06T11:06:02.830Z,30.68
2023-03-06T11:08:30.524Z,32.30
2023-03-06T11:11:04.003Z,32.34
2023-03-06T11:13:34.113Z,32.93
2023-03-06T11:16:26.124Z,32.14
2023-03-06T11:19:04.153Z,31.91
2023-03-06T11:21:36.477Z,34.92
2023-03-06T11:24:23.665Z,32.46
2023-03-06T11:26:56.993Z,34.04
2023-03-06T11:29:43.586Z,32.49
2023-03-06T11:32:14.977Z,34.49
2023-03-06T11:35:03.450Z,32.87
2023-03-06T11:37:49.768Z,35.21
2023-03-06T11:40:40.647Z,33.30
2023-03-06T11:43:19.516Z,32.58
2023-03-06T11:45:55.086Z,31.48
2023-03-06T11:48:31.624Z,32.06
2023-03-06T11:51:06.620Z,31.61
2023-03-06T11:53:37.265Z,31.43
2023-03-06T11:56:10.088Z,34.25
2023-03-06T11:58:50.934Z,32.12
2023-03-06T12:01:35.683Z,32.72
2023-03-06T12:04:33.577Z,33.29
2023-03-06T12:07:21.148Z,32.41
2023-03-06T12:10:17.516Z,30.41
2023-03-06T12:13:12.191Z,32.56
2023-03-06T12:15:53.004Z,32.14
2023-03-06T12:18:38.567Z,31.10
2023-03-06T12:21:36.294Z,31.47
2023-03-06T12:24:49.225Z,31.42
2023-03-06T12:27:34.074Z,31.32
2023-03-06T12:30:19.966Z,32.44
2023-03-06T12:33:00.934Z,32.31
2023-03-06T12:35:53.213Z,30.91
2023-03-06T12:38:38.235Z,31.18
2023-03-06T12:41:19.419Z,30.51
2023-03-06T12:44:18.602Z,28.85
2023-03-06T12:46:49.698Z,30.86
2023-03-06T12:49:32.497Z,30.44
2023-03-06T12:52:02.456Z,30.46
2023-03-06T12:54:33.525Z,35.03
2023-03-06T12:57:01.612Z,32.18
2023-03-06T12:59:49.572Z,33.24
2023-03-06T13:02:55.612Z,31.91
2023-03-06T13:05:50.764Z,33.02
2023-03-06T13:08:47.011Z,32.37
2023-03-06T13:11:35.610Z,32.99
2023-03-06T13:14:25.745Z,31.48
2023-03-06T13:16:53.090Z,32.05
2023-03-06T13:19:39.486Z,31.36
2023-03-06T13:22:15.488Z,30.68
2023-03-06T13:24:44.099Z,31.65
2023-03-06T13:27:12.555Z,31.34
2023-03-06T13:29:39.364Z,30.84
2023-03-06T13:32:17.225Z,33.40
2023-03-06T13:34:49.281Z,32.31
2023-03-06T13:37:25.042Z,32.07
2023-03-06T13:40:00.686Z,31.79
2023-03-06T13:42:57.360Z,32.29
2023-03-06T13:45:28.275Z,31.25
2023-03-06T13:50:49.945Z,31.80
2023-03-06T13:53:22.733Z,32.96
2023-03-06T13:56:10.245Z,32.20
2023-03-06T13:59:09.493Z,33.50
2023-03-06T14:01:54.884Z,34.35
2023-03-06T14:04:53.533Z,33.35
2023-03-06T14:07:35.941Z,33.29
2023-03-06T14:10:34.814Z,32.58
2023-03-06T14:13:05.876Z,31.99
2023-03-06T14:15:44.638Z,34.40
2023-03-06T14:18:20.569Z,34.26
2023-03-06T14:21:30.670Z,33.34
2023-03-06T14:24:03.450Z,34.04
2023-03-06T14:26:34.204Z,33.62
2023-03-06T14:29:03.044Z,35.61
2023-03-06T14:31:37.579Z,34.85
2023-03-06T14:34:07.485Z,35.42
2023-03-06T14:36:44.886Z,34.96
2023-03-06T14:39:23.174Z,34.69
2023-03-06T14:41:50.192Z,35.15
2023-03-06T14:44:35.618Z,34.97
2023-03-06T14:47:23.818Z,35.24
2023-03-06T14:50:19.765Z,35.49
2023-03-06T14:52:46.846Z,35.65
2023-03-06T14:55:22.813Z,35.84
2023-03-06T14:58:13.703Z,36.20
2023-03-06T15:00:44.201Z,36.39
2023-03-06T15:03:42.670Z,36.43
2023-03-06T15:06:22.850Z,35.99
2023-03-06T15:09:02.204Z,35.87
2023-03-06T15:11:53.148Z,36.11
2023-03-06T15:14:27.349Z,36.51
2023-03-06T15:16:54.218Z,36.53
2023-03-06T15:19:22.989Z,37.60
2023-03-06T15:21:52.240Z,37.33
2023-03-06T15:24:45.724Z,37.60
2023-03-06T15:27:19.587Z,37.79
2023-03-06T15:29:46.526Z,37.79
2023-03-06T15:32:25.639Z,38.19
2023-03-06T15:35:34.664Z,38.55
2023-03-06T15:38:04.398Z,38.79
2023-03-06T15:40:32.052Z,38.59
2023-03-06T15:42:59.431Z,38.73
2023-03-06T15:45:28.037Z,39.09
2023-03-06T15:47:56.005Z,38.91
2023-03-06T15:50:28.888Z,38.77
2023-03-06T15:52:55.870Z,39.00
2023-03-06T15:55:26.100Z,39.24
2023-03-06T15:58:00.181Z,39.14
2023-03-06T16:00:32.873Z,38.78
2023-03-06T16:03:00.713Z,39.21
2023-03-06T16:05:29.243Z,39.17
2023-03-06T16:07:56.846Z,39.47
2023-03-06T16:10:26.775Z,42.85
2023-03-06T16:13:15.087Z,40.12
2023-03-06T16:15:47.853Z,40.25
2023-03-06T16:18:15.218Z,40.33
2023-03-06T16:20:42.430Z,41.05
2023-03-06T16:23:12.737Z,40.65
2023-03-06T16:25:42.301Z,40.60
2023-03-06T16:28:18.382Z,40.98
2023-03-06T16:30:46.107Z,40.85
2023-03-06T16:33:13.824Z,40.82
2023-03-06T16:35:41.459Z,41.07
2023-03-06T16:38:10.025Z,41.22
2023-03-06T16:40:41.436Z,41.50
2023-03-06T16:43:27.207Z,41.54
2023-03-06T16:45:54.182Z,41.38
2023-03-06T16:48:21.020Z,41.86
2023-03-06T16:50:48.140Z,41.66
2023-03-06T16:53:15.843Z,41.73
2023-03-06T16:55:42.882Z,42.98
2023-03-06T16:58:10.332Z,41.99
2023-03-06T17:00:37.327Z,42.32
2023-03-06T17:03:04.434Z,42.42
2023-03-06T17:05:37.147Z,42.78
2023-03-06T17:08:04.986Z,43.32
2023-03-06T17:10:31.940Z,43.70
2023-03-06T17:12:58.882Z,44.06
2023-03-06T17:15:26.068Z,43.76
2023-03-06T17:17:53.637Z,43.86
2023-03-06T17:20:21.128Z,44.33
2023-03-06T17:22:49.127Z,43.98
2023-03-06T17:25:16.220Z,43.73
2023-03-06T17:27:43.052Z,44.34
2023-03-06T17:30:10.993Z,44.40
2023-03-06T17:32:40.914Z,44.43
2023-03-06T17:35:09.590Z,44.46
2023-03-06T17:37:36.752Z,44.71
2023-03-06T17:40:04.048Z,45.56
2023-03-06T17:42:31.175Z,46.14
2023-03-06T17:44:58.050Z,45.23
2023-03-06T17:47:25.004Z,46.65
2023-03-06T17:49:51.823Z,45.72
2023-03-06T17:52:18.936Z,45.72
2023-03-06T17:54:46.674Z,46.20
2023-03-06T17:57:13.693Z,47.23
2023-03-06T17:59:40.641Z,48.19
2023-03-06T18:02:07.815Z,48.54
2023-03-06T18:04:34.949Z,48.06
2023-03-06T18:07:01.978Z,48.03
2023-03-06T18:09:29.747Z,48.58
2023-03-06T18:11:56.800Z,49.29
2023-03-06T18:14:24.605Z,49.48
2023-03-06T18:16:51.627Z,50.16
2023-03-06T18:19:18.516Z,49.85
2023-03-06T18:21:47.472Z,50.46
2023-03-06T18:24:14.862Z,50.19
2023-03-06T18:27:00.469Z,49.78
2023-03-06T18:29:27.360Z,50.51
2023-03-06T18:31:54.163Z,50.56
2023-03-06T18:34:21.225Z,51.17
2023-03-06T18:36:50.909Z,51.63
2023-03-06T18:39:17.726Z,51.72
2023-03-06T18:41:44.788Z,50.71
2023-03-06T18:44:17.812Z,50.69
2023-03-06T18:46:44.716Z,50.64
2023-03-06T18:49:13.384Z,50.94
2023-03-06T18:51:40.787Z,51.55
2023-03-06T18:54:08.280Z,53.38
2023-03-06T18:56:35.308Z,53.76
2023-03-06T18:59:05.619Z,53.59
2023-03-06T19:01:33.494Z,54.10
2023-03-06T19:04:02.477Z,54.55
2023-03-06T19:06:30.146Z,55.59
2023-03-06T19:09:01.673Z,55.02
2023-03-06T19:11:29.132Z,55.77
2023-03-06T19:13:56.197Z,56.68
2023-03-06T19:16:26.326Z,57.57
2023-03-06T19:18:55.652Z,57.45
2023-03-06T19:21:25.900Z,58.73
2023-03-06T19:23:53.017Z,58.94
2023-03-06T19:26:20.268Z,59.02
2023-03-06T19:28:47.569Z,59.44
2023-03-06T19:31:19.516Z,60.83
2023-03-06T19:33:49.963Z,60.83
2023-03-06T19:36:18.464Z,61.03
2023-03-06T19:38:45.909Z,60.89
2023-03-06T19:41:13.992Z,60.70
2023-03-06T19:43:42.627Z,60.79
2023-03-06T19:46:14.177Z,60.86
2023-03-06T19:48:43.020Z,63.54
2023-03-06T19:51:10.467Z,62.94
2023-03-06T19:53:38.040Z,61.01
2023-03-06T19:56:06.997Z,62.03
2023-03-06T19:58:34.256Z,61.19
2023-03-06T20:01:12.910Z,62.63
2023-03-06T20:03:40.520Z,63.00
2023-03-06T20:06:12.078Z,62.85
2023-03-06T20:08:38.894Z,61.53
2023-03-06T20:11:06.995Z,60.97
2023-03-06T20:13:33.771Z,61.05
2023-03-06T20:16:04.609Z,62.39
2023-03-06T20:18:31.577Z,63.25
2023-03-06T20:21:00.517Z,64.20
2023-03-06T20:23:28.332Z,64.50
2023-03-06T20:25:55.309Z,64.86
2023-03-06T20:28:23.046Z,62.77
2023-03-06T20:30:49.955Z,62.61
2023-03-06T20:33:17.200Z,63.38
2023-03-06T20:35:44.720Z,64.11
2023-03-06T20:38:12.328Z,65.16
2023-03-06T20:40:42.794Z,64.67
2023-03-06T20:43:09.898Z,64.50
2023-03-06T20:45:36.854Z,63.78
2023-03-06T20:48:03.970Z,63.37
2023-03-06T20:50:31.442Z,63.72
2023-03-06T20:52:59.300Z,64.23
2023-03-06T20:55:26.243Z,63.93
2023-03-06T20:57:53.399Z,64.75
2023-03-06T21:00:21.616Z,64.11
2023-03-06T21:02:48.540Z,60.85
2023-03-06T21:05:15.757Z,62.39
2023-03-06T21:07:42.785Z,61.77
2023-03-06T21:10:10.017Z,60.33
2023-03-06T21:12:37.027Z,62.21
2023-03-06T21:15:04.258Z,59.44
2023-03-06T21:17:31.132Z,62.20
2023-03-06T21:19:58.777Z,61.88
2023-03-06T21:22:26.036Z,61.62
2023-03-06T21:24:52.891Z,61.15
2023-03-06T21:27:20.085Z,61.97
2023-03-06T21:29:46.936Z,62.67
2023-03-06T21:32:13.851Z,62.76
2023-03-06T21:34:40.721Z,63.13
2023-03-06T21:37:07.877Z,62.77
2023-03-06T21:39:35.172Z,62.63
2023-03-06T21:42:02.231Z,61.33
2023-03-06T21:44:29.256Z,61.79
2023-03-06T21:46:56.337Z,59.56
2023-03-06T21:49:26.199Z,54.68
2023-03-06T21:51:53.851Z,56.19
2023-03-06T21:54:21.035Z,57.16
2023-03-06T21:56:48.078Z,56.58
2023-03-06T21:59:15.276Z,56.89
2023-03-06T22:01:42.862Z,58.23
2023-03-06T22:04:09.892Z,57.98
2023-03-06T22:06:40.192Z,58.18
2023-03-06T22:09:07.436Z,59.79
2023-03-06T22:11:37.478Z,59.32
2023-03-06T22:14:06.112Z,60.10
2023-03-06T22:16:33.386Z,58.39
2023-03-06T22:19:00.323Z,58.78
2023-03-06T22:21:27.492Z,58.21
2023-03-06T22:23:59.048Z,59.76
2023-03-06T22:26:27.800Z,58.90
2023-03-06T22:28:54.781Z,58.72
2023-03-06T22:31:28.840Z,58.48
2023-03-06T22:34:00.608Z,59.14
2023-03-06T22:36:30.646Z,58.26
2023-03-06T22:38:59.725Z,58.66
2023-03-06T22:41:27.915Z,57.92
2023-03-06T22:44:02.499Z,58.33
2023-03-06T22:46:29.878Z,58.17
2023-03-06T22:48:57.732Z,57.50
2023-03-06T22:51:25.249Z,57.64
2023-03-06T22:53:52.444Z,56.92
2023-03-06T22:56:21.723Z,57.35
2023-03-06T22:58:49.132Z,57.34
2023-03-06T23:01:25.441Z,57.15
2023-03-06T23:03:54.857Z,57.30
2023-03-06T23:06:25.143Z,56.95
2023-03-06T23:08:57.636Z,56.75
2023-03-06T23:11:25.858Z,56.88
2023-03-06T23:13:54.173Z,56.66
2023-03-06T23:16:21.074Z,56.48
2023-03-06T23:18:48.576Z,56.42
2023-03-06T23:21:18.234Z,56.62
2023-03-06T23:23:49.064Z,56.49
2023-03-06T23:26:17.404Z,56.69
2023-03-06T23:28:44.394Z,56.31
2023-03-06T23:31:17.631Z,56.17
2023-03-06T23:33:44.595Z,56.27
2023-03-06T23:36:14.111Z,56.43
2023-03-06T23:38:41.836Z,56.66
2023-03-06T23:41:12.373Z,56.85
2023-03-06T23:43:39.915Z,57.20
2023-03-06T23:46:07.857Z,57.65
2023-03-06T23:48:36.318Z,57.57
2023-03-06T23:51:23.179Z,57.92
2023-03-06T23:53:55.575Z,58.25
2023-03-06T23:56:29.830Z,58.32
2023-03-06T23:58:56.926Z,58.19
